• Join FlightAware (Why Join?)
  • Login
  • US Flag 
04:01AM EDT


 

Airport Tracker/Info


-or-


 

Live Flight TrackerFlight Track Log ✈ JZA7778 ✈ 21-Jan-2014 ✈ CYYB - CYYZ

Flight Track Log - Related Links

Times and Time Zones

All times are in EST time to prevent confusion due to time zone crossing. See the JZA7778 flight status page for this flight to view local times or setup timezone preferences in your user account.

Time Position Orientation Groundspeed Altitude Reporting Facility
EST Latitude Longitude Course Direction KTS MPH feet Rate Location/Type
08:07PM 46.3500 -79.4167 165° South 20 23 1,200  Level Toronto Center
08:08PM 46.3667 -79.3833 54° Northeast 120 138 2,100 1,380 Climbing Toronto Center
08:09PM 46.3333 -79.3500 145° Southeast 140 161 4,000 1,800 Climbing Toronto Center
08:10PM 46.2833 -79.3500 180° South 150 173 5,700 1,500 Climbing Toronto Center
08:11PM 46.2500 -79.3500 180° South 180 207 7,000 1,380 Climbing Toronto Center
08:12PM 45.9591 -79.4553 170° South  Level Estimated
08:12PM 46.2000 -79.3167 155° Southeast 180 207 8,500  Level Toronto Center
08:13PM 45.8809 -79.4249 165° South  Level FlightAware Approximate
08:13PM 46.1500 -79.3167 180° South 180 207 9,900  Level Toronto Center
08:14PM 46.0833 -79.3167 180° South 180 207 11,200 1,260 Climbing Toronto Center
08:15PM 46.0333 -79.3000 167° South 190 219 12,500 1,320 Climbing Toronto Center
08:16PM 45.9833 -79.3000 180° South 200 230 13,900 1,200 Climbing Toronto Center
08:17PM 45.9333 -79.3000 180° South 200 230 15,000 1,020 Climbing Toronto Center
08:18PM 45.8667 -79.2667 161° South 210 242 16,000 480 Climbing Toronto Center
08:19PM 45.8000 -79.2667 180° South 230 265 16,000  Level Toronto Center
08:20PM 45.7333 -79.2500 170° South 250 288 16,000  Level Toronto Center
08:21PM 45.6667 -79.2500 180° South 260 299 16,000  Level Toronto Center
08:22PM 45.5833 -79.2333 172° South 270 311 16,000  Level Toronto Center
08:23PM 45.5167 -79.2333 180° South 270 311 16,000  Level Toronto Center
08:24PM 45.4333 -79.2000 164° South 270 311 16,000  Level Toronto Center
08:25PM 45.3667 -79.2000 180° South 270 311 16,000  Level Toronto Center
08:26PM 45.2833 -79.1833 172° South 270 311 16,000  Level Toronto Center
08:27PM 45.2167 -79.2000 190° South 270 311 16,000  Level Toronto Center
08:28PM 45.1333 -79.1833 172° South 270 311 16,000  Level Toronto Center
08:29PM 45.0667 -79.2000 190° South 270 311 16,000  Level Toronto Center
08:30PM 44.9833 -79.2000 180° South 270 311 16,000  Level Toronto Center
08:31PM 44.9167 -79.2167 190° South 270 311 16,000  Level Toronto Center
08:32PM 44.8500 -79.2167 180° South 270 311 16,000  Level Toronto Center
08:33PM 44.7667 -79.2167 180° South 270 311 16,000 -300 Level Toronto Center
08:34PM 44.7000 -79.2167 180° South 270 311 15,500 -600 Descending Toronto Center
08:35PM 44.6167 -79.2167 180° South 280 322 14,800 -720 Descending Toronto Center
08:36PM 44.5500 -79.2167 180° South 280 322 14,100 -720 Descending Toronto Center
08:37PM 44.4667 -79.2167 180° South 280 322 13,400 -720 Descending Toronto Center
08:38PM 44.3833 -79.2167 180° South 280 322 12,700 -780 Descending Toronto Center
08:39PM 44.3167 -79.2167 180° South 270 311 11,900 -780 Descending Toronto Center
08:40PM 44.2333 -79.2167 180° South 270 311 11,200 -720 Descending Toronto Center
08:41PM 44.1500 -79.2167 180° South 270 311 10,500 -720 Descending Toronto Center
08:42PM 44.0833 -79.2167 180° South 270 311 9,800 -720 Descending Toronto Center
08:43PM 44.0167 -79.2667 208° Southwest 260 299 9,100 -720 Descending Toronto Center
08:44PM 43.9667 -79.3167 216° Southwest 260 299 8,400 -600 Descending Toronto Center
08:45PM 43.9000 -79.3833 216° Southwest 260 299 8,000 -240 Descending Toronto Center
08:46PM 43.8500 -79.4167 206° Southwest 250 288 8,000  Level Toronto Center
08:47PM 43.8167 -79.5167 245° Southwest 240 276 8,000  Level Toronto Center
08:48PM 43.7833 -79.5833 235° Southwest 240 276 8,000 -300 Level Toronto Center
08:49PM 43.7500 -79.6833 245° Southwest 240 276 7,500 -1,080 Descending Toronto Center
08:50PM 43.7167 -79.7500 235° Southwest 240 276 5,900 -1,440 Descending Toronto Center
08:51PM 43.6667 -79.8000 216° Southwest 230 265 4,700 -1,440 Descending Toronto Center
08:52PM 43.6333 -79.8667 235° Southwest 220 253 3,100 -900 Descending Toronto Center
08:53PM 43.5667 -79.8333 160° South 210 242 3,000 -60 Descending Toronto Center
08:54PM 43.5667 -79.7667 90° East 180 207 3,000 -300 Level Toronto Center
08:55PM 43.6000 -79.7333 36° Northeast 160 184 2,500 -600 Descending Toronto Center
08:56PM 43.6333 -79.7000 36° Northeast 150 173 1,800 -720 Descending Toronto Center
08:58PM 43.6667 -79.6333 55° Northeast 100 115 500 -480 Descending Toronto Center
08:59PM 43.6833 -79.6167 36° Northeast 40 46 500  Level Toronto Center